Time;durP1;ratioP1;P1;durP2;ratioP2;P2;SDS_P1;SDS_P2;PMS_P1;PMS_P2;Temp;Humidity;BMP_temperature;BMP_pressure;BME280_temperature;BME280_humidity;BME280_pressure;Samples;Min_cycle;Max_cycle;Signal;HPM_P1;HPM_P2
2022/12/16 00:01:21;;;;;;;32.40;14.25;;;;;;;;;;8499385;27;20168;-92
2022/12/16 00:05:25;;;;;;;28.15;12.15;;;;;;;;;;8499369;27;20051;-83
2022/12/16 00:09:28;;;;;;;49.08;17.83;;;;;;;;;;8499079;27;20117;-92
2022/12/16 00:13:32;;;;;;;35.60;13.65;;;;;;;;;;8499231;27;20074;-93
2022/12/16 00:17:36;;;;;;;37.42;14.93;;;;;;;;;;8478664;27;20043;-93
2022/12/16 00:21:40;;;;;;;30.50;12.65;;;;;;;;;;8484598;27;20510;-86
2022/12/16 00:25:43;;;;;;;42.35;17.67;;;;;;;;;;8484345;27;20039;-85
2022/12/16 00:29:46;;;;;;;42.00;17.77;;;;;;;;;;8498786;27;20050;-94
2022/12/16 00:33:51;;;;;;;29.15;14.45;;;;;;;;;;8498550;27;20150;-82
2022/12/16 00:37:55;;;;;;;9.98;5.30;;;;;;;;;;8498867;27;20053;-88
2022/12/16 00:41:58;;;;;;;14.18;8.18;;;;;;;;;;8498666;27;20118;-87
2022/12/16 00:46:01;;;;;;;39.67;18.08;;;;;;;;;;8499355;27;20397;-94
2022/12/16 00:50:05;;;;;;;32.17;15.70;;;;;;;;;;8498613;27;20054;-93
2022/12/16 00:54:09;;;;;;;24.67;10.93;;;;;;;;;;8497744;27;20066;-81
2022/12/16 00:58:12;;;;;;;35.55;14.98;;;;;;;;;;8498778;28;20051;-87
2022/12/16 01:02:15;;;;;;;45.58;16.50;;;;;;;;;;8498678;28;20114;-81
2022/12/16 01:06:18;;;;;;;31.33;14.30;;;;;;;;;;8483753;28;20051;-86
2022/12/16 01:10:23;;;;;;;27.55;12.57;;;;;;;;;;8497977;28;20122;-89
2022/12/16 01:14:26;;;;;;;19.83;9.52;;;;;;;;;;8483581;28;20056;-85
2022/12/16 01:18:33;;;;;;;22.92;9.27;;;;;;;;;;8499238;28;20075;-88
2022/12/16 01:22:37;;;;;;;33.83;14.98;;;;;;;;;;8494887;28;20086;-85
2022/12/16 01:26:41;;;;;;;39.30;15.07;;;;;;;;;;8485670;28;20071;-91
2022/12/16 01:30:44;;;;;;;39.58;15.38;;;;;;;;;;8483607;28;20549;-88
2022/12/16 01:34:51;;;;;;;46.78;16.30;;;;;;;;;;8484703;28;20047;-82
2022/12/16 01:38:54;;;;;;;31.17;15.27;;;;;;;;;;8498345;28;20123;-93
2022/12/16 01:42:58;;;;;;;33.33;13.77;;;;;;;;;;8498286;28;20078;-83
2022/12/16 01:47:05;;;;;;;26.92;12.88;;;;;;;;;;8499474;28;20446;-94
2022/12/16 01:51:12;;;;;;;34.50;13.00;;;;;;;;;;8499536;28;20055;-92
2022/12/16 01:55:20;;;;;;;32.50;14.43;;;;;;;;;;8499314;28;20043;-85
2022/12/16 01:59:28;;;;;;;35.95;14.70;;;;;;;;;;8494078;28;20047;-92
2022/12/16 02:03:34;;;;;;;35.53;15.40;;;;;;;;;;8476143;28;20050;-90
2022/12/16 02:07:37;;;;;;;32.20;11.43;;;;;;;;;;8499752;27;20047;-89
2022/12/16 02:12:06;;;;;;;7.72;3.90;;;;;;;;;;8470376;28;20052;-92
2022/12/16 02:16:16;;;;;;;29.92;12.73;;;;;;;;;;8501799;27;20131;-90
2022/12/16 02:21:05;;;;;;;27.88;10.95;;;;;;;;;;8504825;27;20039;-86
2022/12/16 02:25:38;;;;;;;29.00;12.43;;;;;;;;;;8491151;27;20066;-91
2022/12/16 02:29:57;;;;;;;;;;;;;;;;;;8516950;27;20470;-87
2022/12/16 02:34:12;;;;;;;31.60;13.27;;;;;;;;;;8519966;27;19942;-90
2022/12/16 02:38:23;;;;;;;10.40;4.63;;;;;;;;;;8511576;27;20047;-93
2022/12/16 02:42:30;;;;;;;31.02;13.35;;;;;;;;;;8491195;27;20118;-91
2022/12/16 02:46:38;;;;;;;28.00;12.43;;;;;;;;;;8493615;27;20044;-87
2022/12/16 02:50:47;;;;;;;25.45;10.32;;;;;;;;;;8483746;27;20391;-87
2022/12/16 02:54:54;;;;;;;32.97;12.60;;;;;;;;;;8492682;27;20047;-83
2022/12/16 02:59:06;;;;;;;29.73;11.95;;;;;;;;;;8503666;27;20078;-92
2022/12/16 03:03:14;;;;;;;27.05;11.18;;;;;;;;;;8503985;27;20537;-88
2022/12/16 03:07:20;;;;;;;27.25;12.75;;;;;;;;;;8502513;27;20554;-91
2022/12/16 03:11:26;;;;;;;28.65;11.52;;;;;;;;;;8502407;27;20498;-93
2022/12/16 03:15:32;;;;;;;29.38;11.77;;;;;;;;;;8502506;27;20050;-83
2022/12/16 03:19:38;;;;;;;22.35;10.27;;;;;;;;;;8502060;27;20126;-88
2022/12/16 03:23:48;;;;;;;29.85;11.80;;;;;;;;;;8712083;22;20053;-82
2022/12/16 03:27:59;;;;;;;28.48;13.52;;;;;;;;;;8332857;28;20045;-85
2022/12/16 03:32:05;;;;;;;30.00;12.05;;;;;;;;;;8333200;28;20056;-83
2022/12/16 03:36:12;;;;;;;29.35;11.70;;;;;;;;;;8332580;28;20083;-84
2022/12/16 03:40:17;;;;;;;25.92;9.35;;;;;;;;;;8332188;28;20050;-90
2022/12/16 03:44:24;;;;;;;32.25;11.85;;;;;;;;;;8340288;28;20051;-83
2022/12/16 03:48:29;;;;;;;27.90;11.50;;;;;;;;;;8345041;28;20496;-84
2022/12/16 03:52:32;;;;;;;38.83;14.50;;;;;;;;;;8345622;28;20053;-91
2022/12/16 03:56:37;;;;;;;31.98;13.55;;;;;;;;;;8359332;28;20049;-87
2022/12/16 04:00:40;;;;;;;29.85;12.93;;;;;;;;;;8336952;28;20548;-90
2022/12/16 04:04:42;;;;;;;26.98;10.60;;;;;;;;;;8364165;28;20049;-92
2022/12/16 04:08:45;;;;;;;31.33;13.48;;;;;;;;;;8350052;28;20077;-90
2022/12/16 04:25:53;;;;;;;36.28;12.63;;;;;;;;;;8349507;28;20058;-91
2022/12/16 04:34:27;;;;;;;37.75;14.70;;;;;;;;;;8358404;28;20045;-90
